Time;durP1;ratioP1;P1;durP2;ratioP2;P2;SDS_P1;SDS_P2;PMS_P1;PMS_P2;Temp;Humidity;BMP_temperature;BMP_pressure;BME280_temperature;BME280_humidity;BME280_pressure;Samples;Min_cycle;Max_cycle;Signal;HPM_P1;HPM_P2
2021/01/05 00:00:21;;;;;;;14.33;10.93;;;4.90;99.90;;;;;;5086590;28;20188;-74
2021/01/05 00:02:47;;;;;;;14.23;11.13;;;4.70;99.90;;;;;;5098836;28;20230;-74
2021/01/05 00:05:14;;;;;;;14.70;11.10;;;4.80;99.90;;;;;;5095294;28;20422;-74
2021/01/05 00:07:40;;;;;;;16.00;12.13;;;4.80;99.90;;;;;;5086219;28;20425;-74
2021/01/05 00:10:06;;;;;;;17.53;11.93;;;4.80;99.90;;;;;;5087390;28;20444;-71
2021/01/05 00:12:32;;;;;;;15.67;11.43;;;4.70;99.90;;;;;;5087559;28;20422;-74
2021/01/05 00:14:58;;;;;;;15.40;11.23;;;4.80;99.90;;;;;;5084900;28;20433;-71
2021/01/05 00:17:24;;;;;;;16.20;11.63;;;4.90;99.90;;;;;;5069451;28;20446;-71
2021/01/05 00:19:50;;;;;;;15.03;11.57;;;4.80;99.90;;;;;;5087536;28;20177;-71
2021/01/05 00:22:17;;;;;;;14.27;10.93;;;4.70;99.90;;;;;;5086236;28;20509;-71
2021/01/05 00:24:43;;;;;;;15.90;11.90;;;4.80;99.90;;;;;;5086695;28;20889;-74
2021/01/05 00:27:09;;;;;;;13.87;9.83;;;4.80;99.90;;;;;;5087595;28;20442;-73
2021/01/05 00:29:35;;;;;;;18.00;12.67;;;4.80;99.90;;;;;;5087582;28;20426;-73
2021/01/05 00:32:06;;;;;;;16.23;11.80;;;4.80;99.90;;;;;;5085638;28;20410;-73
2021/01/05 00:34:32;;;;;;;15.33;11.73;;;4.90;99.90;;;;;;5085484;28;20422;-73
2021/01/05 00:36:58;;;;;;;16.20;11.90;;;4.70;99.90;;;;;;5086763;28;20439;-73
2021/01/05 00:39:24;;;;;;;15.93;11.87;;;4.60;99.90;;;;;;5086211;28;20411;-73
2021/01/05 00:41:49;;;;;;;16.47;11.90;;;4.80;99.90;;;;;;5085716;28;20429;-73
2021/01/05 00:44:15;;;;;;;17.57;11.50;;;4.80;99.90;;;;;;5085382;28;20578;-73
2021/01/05 00:46:41;;;;;;;16.47;11.60;;;4.50;99.90;;;;;;5087267;28;20843;-73
2021/01/05 00:49:07;;;;;;;15.87;11.73;;;4.60;99.90;;;;;;5089537;28;20177;-73
2021/01/05 00:51:32;;;;;;;15.07;11.97;;;4.50;99.90;;;;;;5090186;28;20555;-73
2021/01/05 00:53:58;;;;;;;15.97;11.17;;;4.70;99.90;;;;;;5090232;28;20188;-74
2021/01/05 00:56:23;;;;;;;14.10;11.17;;;4.60;99.90;;;;;;5055714;28;20188;-73
2021/01/05 00:58:49;;;;;;;15.37;12.17;;;4.50;99.90;;;;;;5090987;28;20181;-73
2021/01/05 01:01:15;;;;;;;15.13;10.87;;;4.60;99.90;;;;;;5090286;28;20265;-72
2021/01/05 01:03:41;;;;;;;16.57;12.30;;;4.50;99.90;;;;;;5089765;28;20204;-72
2021/01/05 01:06:07;;;;;;;18.57;12.20;;;4.30;99.90;;;;;;5089698;28;20830;-71
2021/01/05 01:08:32;;;;;;;14.67;10.47;;;4.50;99.90;;;;;;5075881;28;20196;-72
2021/01/05 01:10:58;;;;;;;15.93;11.73;;;4.40;99.90;;;;;;5089123;28;20185;-71
2021/01/05 01:13:24;;;;;;;14.63;11.37;;;4.30;99.90;;;;;;5088404;28;20184;-72
2021/01/05 01:15:50;;;;;;;13.80;10.40;;;4.30;99.90;;;;;;5090360;28;20202;-71
2021/01/05 01:18:17;;;;;;;17.17;12.60;;;4.20;99.90;;;;;;5071971;28;20225;-72
2021/01/05 01:20:42;;;;;;;16.13;11.77;;;4.50;99.90;;;;;;5088843;28;20753;-72
2021/01/05 01:23:08;;;;;;;16.03;11.33;;;4.40;99.90;;;;;;5088022;28;20712;-72
2021/01/05 01:25:33;;;;;;;14.10;11.00;;;4.40;99.90;;;;;;5088870;28;20192;-72
2021/01/05 01:27:59;;;;;;;15.77;10.80;;;4.40;99.90;;;;;;5088903;28;20287;-71
2021/01/05 01:30:25;;;;;;;14.83;11.63;;;4.50;99.90;;;;;;5088740;28;20188;-72
2021/01/05 01:32:51;;;;;;;16.20;12.23;;;4.50;99.90;;;;;;5087789;28;20208;-72
2021/01/05 01:35:17;;;;;;;16.70;11.27;;;4.20;99.90;;;;;;5088356;28;20209;-72
2021/01/05 01:37:42;;;;;;;14.07;11.00;;;4.30;99.90;;;;;;5076281;28;20189;-72
2021/01/05 01:40:10;;;;;;;16.33;11.50;;;4.30;99.90;;;;;;5090258;28;21027;-72
2021/01/05 01:42:36;;;;;;;15.37;10.90;;;4.20;99.90;;;;;;5089841;28;20736;-71
2021/01/05 01:45:04;;;;;;;17.80;11.60;;;4.10;99.90;;;;;;5087888;28;20426;-71
2021/01/05 01:47:31;;;;;;;16.00;10.80;;;4.10;99.90;;;;;;5071253;28;20418;-72
2021/01/05 01:50:02;;;;;;;15.10;11.03;;;4.20;99.90;;;;;;5089842;28;20426;-72
2021/01/05 01:53:04;;;;;;;20.00;11.27;;;4.10;99.90;;;;;;5088240;28;20421;-72
2021/01/05 01:56:01;;;;;;;17.17;11.30;;;4.00;99.90;;;;;;5089563;28;20523;-72
2021/01/05 01:58:33;;;;;;;16.80;11.17;;;3.90;99.90;;;;;;5089014;28;20445;-72
2021/01/05 02:01:07;;;;;;;14.53;10.50;;;3.90;99.90;;;;;;5071204;28;20422;-71
2021/01/05 02:03:58;;;;;;;16.83;11.93;;;3.80;99.90;;;;;;5087002;28;20461;-72
2021/01/05 02:06:39;;;;;;;14.97;10.47;;;3.80;99.90;;;;;;5087992;28;20422;-71
2021/01/05 02:09:45;;;;;;;14.97;11.60;;;3.80;99.90;;;;;;5089280;28;20418;-71
2021/01/05 02:12:25;;;;;;;14.43;10.50;;;4.10;99.90;;;;;;5089331;28;20423;-71
2021/01/05 02:15:12;;;;;;;18.13;11.20;;;4.10;99.90;;;;;;5088592;28;20924;-71
2021/01/05 02:18:08;;;;;;;16.10;10.90;;;4.00;99.90;;;;;;5089152;28;20474;-71
2021/01/05 02:20:45;;;;;;;17.63;10.57;;;3.70;99.90;;;;;;5089443;28;20999;-71
2021/01/05 02:23:37;;;;;;;17.40;12.07;;;4.00;99.90;;;;;;5087027;28;20470;-71
2021/01/05 02:26:17;;;;;;;20.13;11.80;;;3.80;99.90;;;;;;5087746;28;20438;-71
2021/01/05 02:28:54;;;;;;;16.40;11.47;;;3.80;99.90;;;;;;5088804;28;20415;-72
2021/01/05 02:31:55;;;;;;;18.33;12.40;;;3.70;99.90;;;;;;5085728;28;20476;-72
2021/01/05 02:34:46;;;;;;;15.27;10.70;;;3.90;99.90;;;;;;5024823;28;20751;-73
2021/01/05 02:37:15;;;;;;;17.90;12.67;;;3.80;99.90;;;;;;5084752;28;20518;-72
2021/01/05 02:40:13;;;;;;;17.70;12.57;;;3.90;99.90;;;;;;5087474;28;20414;-72
2021/01/05 02:43:29;;;;;;;16.77;11.60;;;3.90;99.90;;;;;;5076584;28;20462;-71
2021/01/05 02:46:37;;;;;;;15.37;11.40;;;3.90;99.90;;;;;;5064401;28;20454;-71
2021/01/05 02:49:45;;;;;;;15.07;11.33;;;3.80;99.90;;;;;;5088951;28;20419;-73
2021/01/05 02:52:33;;;;;;;19.27;12.00;;;3.70;99.90;;;;;;5087541;28;20414;-72
2021/01/05 02:55:35;;;;;;;15.83;11.10;;;3.70;99.90;;;;;;5087762;28;20875;-71
2021/01/05 02:58:39;;;;;;;19.10;12.47;;;3.50;99.90;;;;;;5087208;28;20426;-73
2021/01/05 03:01:10;;;;;;;16.80;12.10;;;3.70;99.90;;;;;;5087473;28;20470;-71
2021/01/05 03:03:46;;;;;;;16.20;11.50;;;3.60;99.90;;;;;;5087994;28;20466;-72
2021/01/05 03:06:52;;;;;;;19.10;12.27;;;3.70;99.90;;;;;;5086997;28;20734;-72
2021/01/05 03:09:32;;;;;;;16.83;11.30;;;3.80;99.90;;;;;;5065229;28;20787;-73
2021/01/05 03:12:16;;;;;;;17.70;12.60;;;3.80;99.90;;;;;;5064462;28;20446;-73
2021/01/05 03:15:07;;;;;;;16.70;12.10;;;3.70;99.90;;;;;;5080482;28;20828;-74
2021/01/05 03:17:50;;;;;;;16.77;12.27;;;3.60;99.90;;;;;;5087905;28;20509;-74
2021/01/05 03:20:33;;;;;;;17.77;12.23;;;3.60;99.90;;;;;;5088091;28;20464;-73
2021/01/05 03:23:01;;;;;;;17.67;12.93;;;3.90;99.90;;;;;;5086296;28;20458;-74
2021/01/05 03:25:32;;;;;;;16.63;12.10;;;3.70;99.90;;;;;;5088208;28;20422;-73
2021/01/05 03:28:02;;;;;;;18.70;12.10;;;3.70;99.90;;;;;;5087860;28;20414;-74
2021/01/05 03:30:31;;;;;;;17.67;11.50;;;3.80;99.90;;;;;;5087904;28;20513;-74
2021/01/05 03:32:57;;;;;;;16.73;10.73;;;3.80;99.90;;;;;;5085819;28;20909;-74
2021/01/05 03:35:23;;;;;;;17.23;11.13;;;3.90;99.90;;;;;;5087913;28;20944;-74
2021/01/05 03:37:49;;;;;;;19.57;13.60;;;3.90;99.90;;;;;;5087952;28;20418;-74
2021/01/05 03:40:15;;;;;;;16.53;11.40;;;3.50;99.90;;;;;;5087708;28;20199;-73
2021/01/05 03:42:41;;;;;;;18.23;11.97;;;4.00;99.90;;;;;;5088161;28;20574;-72
2021/01/05 03:45:08;;;;;;;17.80;11.80;;;4.00;99.90;;;;;;5086198;28;20427;-73
2021/01/05 03:47:34;;;;;;;18.70;12.83;;;3.80;99.90;;;;;;5088041;28;20179;-72
2021/01/05 03:50:00;;;;;;;17.30;11.70;;;3.70;99.90;;;;;;5087722;28;20441;-72
2021/01/05 03:52:25;;;;;;;18.90;13.00;;;3.90;99.90;;;;;;5086354;28;20434;-72
2021/01/05 03:54:51;;;;;;;14.67;11.47;;;3.80;99.90;;;;;;5087087;28;20188;-73
2021/01/05 03:57:18;;;;;;;16.90;11.00;;;3.90;99.90;;;;;;5087809;28;20550;-72
2021/01/05 03:59:44;;;;;;;16.83;11.40;;;3.70;99.90;;;;;;5086807;28;20452;-73
2021/01/05 04:02:10;;;;;;;16.00;11.27;;;3.80;99.90;;;;;;5087624;28;20423;-73
2021/01/05 04:04:36;;;;;;;16.87;12.27;;;3.50;99.90;;;;;;5087011;28;20220;-73
2021/01/05 04:07:02;;;;;;;18.77;12.70;;;3.90;99.90;;;;;;5039392;28;20453;-73
2021/01/05 04:09:27;;;;;;;20.30;12.90;;;3.80;99.90;;;;;;5086781;28;20455;-73
2021/01/05 04:11:53;;;;;;;19.33;13.03;;;3.50;99.90;;;;;;5085767;28;20326;-73
2021/01/05 04:14:19;;;;;;;18.17;11.53;;;3.40;99.90;;;;;;5086349;28;20188;-72
2021/01/05 04:16:48;;;;;;;17.30;11.27;;;3.70;99.90;;;;;;5087466;28;20204;-72
2021/01/05 04:19:15;;;;;;;17.73;11.57;;;3.90;99.90;;;;;;5087463;28;20659;-73
2021/01/05 04:21:40;;;;;;;18.63;12.87;;;4.00;99.90;;;;;;5086362;28;20418;-72
2021/01/05 04:24:07;;;;;;;18.60;11.80;;;3.60;99.90;;;;;;5089083;28;20531;-72
2021/01/05 04:26:33;;;;;;;21.00;12.87;;;3.90;99.90;;;;;;5091435;28;20180;-72
2021/01/05 04:28:59;;;;;;;19.63;12.10;;;3.80;99.90;;;;;;5089889;28;20422;-72
2021/01/05 04:31:26;;;;;;;19.40;11.83;;;3.70;99.90;;;;;;5089777;28;20426;-72
2021/01/05 04:33:51;;;;;;;18.87;11.73;;;3.60;99.90;;;;;;5090532;28;20426;-72
2021/01/05 04:36:17;;;;;;;18.00;11.23;;;3.70;99.90;;;;;;5091379;28;20604;-72
2021/01/05 04:38:43;;;;;;;17.30;10.73;;;3.70;99.90;;;;;;5090655;28;20192;-72
2021/01/05 04:41:18;;;;;;;18.63;11.97;;;3.60;99.90;;;;;;5091165;28;20433;-72
2021/01/05 04:44:03;;;;;;;18.67;11.37;;;3.50;99.90;;;;;;5090478;28;20306;-73
2021/01/05 04:47:01;;;;;;;19.63;11.87;;;3.70;99.90;;;;;;5091016;28;20435;-73
2021/01/05 04:50:22;;;;;;;18.60;11.37;;;3.40;99.90;;;;;;5080055;28;20852;-73
2021/01/05 04:53:03;;;;;;;17.53;11.40;;;3.40;99.90;;;;;;5087099;28;20510;-72
2021/01/05 04:55:52;;;;;;;18.23;10.93;;;3.50;99.90;;;;;;5090503;28;20430;-73
2021/01/05 04:58:39;;;;;;;23.97;12.57;;;3.80;99.90;;;;;;5087590;28;20515;-73
2021/01/05 05:01:17;;;;;;;22.40;12.77;;;3.60;99.90;;;;;;5090937;28;20756;-72
2021/01/05 05:04:15;;;;;;;19.33;12.10;;;3.40;99.90;;;;;;5088221;28;20461;-72
2021/01/05 05:06:51;;;;;;;21.07;12.47;;;3.60;99.90;;;;;;5089172;28;20471;-73
2021/01/05 05:09:55;;;;;;;19.10;12.20;;;3.60;99.90;;;;;;5090535;28;20461;-73
2021/01/05 05:12:46;;;;;;;20.73;12.33;;;3.50;99.90;;;;;;5089347;28;20418;-73
2021/01/05 05:15:35;;;;;;;21.23;11.87;;;3.70;99.90;;;;;;5088442;28;20434;-73
2021/01/05 05:18:31;;;;;;;21.60;12.23;;;3.50;99.90;;;;;;5090273;28;20445;-73
2021/01/05 05:21:09;;;;;;;18.50;12.00;;;3.80;99.90;;;;;;5089959;28;20414;-73
2021/01/05 05:23:55;;;;;;;18.13;12.03;;;3.60;99.90;;;;;;5089413;28;20462;-73
2021/01/05 05:26:56;;;;;;;19.20;11.53;;;3.80;99.90;;;;;;5089863;28;20430;-72
2021/01/05 05:29:25;;;;;;;17.20;12.20;;;3.80;99.90;;;;;;5088618;28;20420;-72
2021/01/05 05:31:51;;;;;;;17.73;12.30;;;3.60;99.90;;;;;;5088600;28;20497;-73
2021/01/05 05:34:24;;;;;;;19.20;11.33;;;3.60;99.90;;;;;;5087066;28;20462;-72
2021/01/05 05:36:54;;;;;;;18.40;11.17;;;3.60;99.90;;;;;;5089568;28;20519;-72
2021/01/05 05:39:42;;;;;;;20.47;13.80;;;3.70;99.90;;;;;;5075403;28;20434;-72
2021/01/05 05:42:35;;;;;;;19.37;11.17;;;3.50;99.90;;;;;;5089838;28;20983;-73
2021/01/05 05:45:08;;;;;;;18.73;11.47;;;3.50;99.90;;;;;;5071133;28;20538;-72
2021/01/05 05:47:48;;;;;;;20.30;13.30;;;3.60;99.90;;;;;;5090024;28;20768;-72
2021/01/05 05:50:22;;;;;;;19.70;13.30;;;3.60;99.90;;;;;;5089876;28;20815;-72
2021/01/05 05:52:50;;;;;;;19.63;12.97;;;3.60;99.90;;;;;;5089868;28;20410;-72
2021/01/05 05:55:33;;;;;;;17.90;12.20;;;3.90;99.90;;;;;;5088431;28;20811;-73
2021/01/05 05:58:01;;;;;;;21.10;11.57;;;3.70;99.90;;;;;;5090194;28;20468;-73
2021/01/05 06:00:35;;;;;;;16.83;12.10;;;3.50;99.90;;;;;;5039090;28;20429;-73
2021/01/05 06:03:02;;;;;;;19.90;12.30;;;3.70;99.90;;;;;;5089311;28;20458;-73
2021/01/05 06:05:33;;;;;;;20.27;12.40;;;3.70;99.90;;;;;;5089129;28;20429;-72
2021/01/05 06:07:59;;;;;;;19.33;12.17;;;3.70;99.90;;;;;;5088012;28;20414;-72
2021/01/05 06:10:25;;;;;;;21.10;12.50;;;3.40;99.90;;;;;;5089094;28;20472;-73
2021/01/05 06:12:51;;;;;;;21.87;12.30;;;3.60;99.90;;;;;;5087316;28;20469;-73
2021/01/05 06:15:17;;;;;;;18.70;12.10;;;3.40;99.90;;;;;;5087909;28;20414;-73
2021/01/05 06:17:43;;;;;;;19.87;12.40;;;3.70;99.90;;;;;;5070863;28;20491;-73
2021/01/05 06:20:10;;;;;;;17.70;12.57;;;3.30;99.90;;;;;;5089429;28;20441;-73
2021/01/05 06:22:36;;;;;;;20.17;12.00;;;3.60;99.90;;;;;;5087663;28;20557;-73
2021/01/05 06:25:03;;;;;;;19.80;11.80;;;3.60;99.90;;;;;;5088366;28;20530;-73
2021/01/05 06:27:29;;;;;;;16.37;11.10;;;3.80;99.90;;;;;;5089000;28;20183;-73
2021/01/05 06:29:54;;;;;;;20.93;13.03;;;3.60;99.90;;;;;;5087886;28;20509;-73
2021/01/05 06:32:20;;;;;;;21.67;13.80;;;3.70;99.90;;;;;;5085951;28;20217;-73
2021/01/05 06:34:46;;;;;;;19.27;12.60;;;3.80;99.90;;;;;;5088483;28;20181;-73
2021/01/05 06:37:12;;;;;;;20.80;12.27;;;3.80;99.90;;;;;;5088447;28;20188;-73
2021/01/05 06:39:37;;;;;;;20.93;13.07;;;3.50;99.90;;;;;;5087773;28;20184;-73
2021/01/05 06:42:03;;;;;;;21.57;14.00;;;3.70;99.90;;;;;;5088802;28;20546;-73
2021/01/05 06:44:29;;;;;;;20.97;13.33;;;3.70;99.90;;;;;;5088310;28;20212;-73
2021/01/05 06:46:55;;;;;;;23.33;14.20;;;3.50;99.90;;;;;;5087748;28;20947;-73
2021/01/05 06:49:20;;;;;;;19.87;12.40;;;3.80;99.90;;;;;;5087322;28;20229;-73
2021/01/05 06:51:46;;;;;;;21.03;14.13;;;3.80;99.90;;;;;;5088619;28;20176;-73
2021/01/05 06:54:12;;;;;;;23.53;14.20;;;3.60;99.90;;;;;;5087771;28;20195;-73
2021/01/05 06:56:52;;;;;;;20.43;13.63;;;3.60;99.90;;;;;;5088656;28;20378;-73
2021/01/05 06:59:19;;;;;;;19.30;12.10;;;3.70;99.90;;;;;;5088475;28;20195;-73
2021/01/05 07:01:57;;;;;;;22.67;13.30;;;3.50;99.90;;;;;;5086423;28;20560;-73
2021/01/05 07:04:24;;;;;;;22.60;13.40;;;3.80;99.90;;;;;;5087353;28;20450;-73
2021/01/05 07:06:50;;;;;;;28.70;13.97;;;3.50;99.90;;;;;;5086866;28;20414;-73
2021/01/05 07:09:18;;;;;;;24.67;14.20;;;3.50;99.90;;;;;;5088293;28;20694;-73
2021/01/05 07:11:44;;;;;;;20.23;12.27;;;3.60;99.90;;;;;;5088334;28;20418;-73
2021/01/05 07:14:12;;;;;;;22.00;14.20;;;3.70;99.90;;;;;;5087763;28;20498;-73
2021/01/05 07:16:38;;;;;;;20.23;13.03;;;3.70;99.90;;;;;;5088162;28;20445;-73
2021/01/05 07:19:04;;;;;;;21.07;12.80;;;3.40;99.90;;;;;;5086597;28;20426;-73
2021/01/05 07:21:30;;;;;;;25.20;14.90;;;3.40;99.90;;;;;;5088127;28;20204;-74
2021/01/05 07:23:55;;;;;;;18.50;11.53;;;3.50;99.90;;;;;;5088254;28;20461;-74
2021/01/05 07:26:21;;;;;;;19.77;12.10;;;3.50;99.90;;;;;;5088092;28;20210;-74
2021/01/05 07:28:47;;;;;;;21.37;13.67;;;3.50;99.90;;;;;;5086752;28;20187;-74
2021/01/05 07:31:13;;;;;;;24.83;13.37;;;3.50;99.90;;;;;;5084314;28;20188;-74
2021/01/05 07:33:38;;;;;;;18.37;12.17;;;3.80;99.90;;;;;;5085997;28;20184;-74
2021/01/05 07:36:33;;;;;;;23.23;14.00;;;3.60;99.90;;;;;;5081849;28;20430;-74
2021/01/05 07:38:59;;;;;;;20.77;13.40;;;3.60;99.90;;;;;;5077889;28;20180;-74
2021/01/05 07:41:25;;;;;;;23.93;14.50;;;3.30;99.90;;;;;;5076808;28;20492;-74
2021/01/05 07:43:50;;;;;;;22.93;13.97;;;3.60;99.90;;;;;;5076065;28;20719;-74
2021/01/05 07:46:16;;;;;;;22.27;13.13;;;3.70;99.90;;;;;;5080242;28;20186;-74
2021/01/05 07:48:42;;;;;;;22.37;13.50;;;3.70;99.90;;;;;;5087092;28;20184;-74
2021/01/05 07:51:09;;;;;;;21.30;13.83;;;3.60;99.90;;;;;;5086539;28;20581;-74
2021/01/05 07:53:35;;;;;;;22.27;13.27;;;3.50;99.90;;;;;;5087145;28;20188;-74
2021/01/05 07:56:01;;;;;;;21.43;12.80;;;3.40;99.90;;;;;;5087677;28;20440;-74
2021/01/05 07:58:27;;;;;;;22.97;12.97;;;3.50;99.90;;;;;;5089968;28;20472;-73
2021/01/05 08:00:53;;;;;;;23.73;13.43;;;3.70;99.90;;;;;;5092001;28;20426;-74
2021/01/05 08:03:18;;;;;;;21.83;13.63;;;3.60;99.90;;;;;;5089868;28;20223;-74
2021/01/05 08:05:44;;;;;;;23.53;13.67;;;3.60;99.90;;;;;;5073739;28;20421;-74
2021/01/05 08:08:10;;;;;;;21.37;13.10;;;3.70;99.90;;;;;;5090460;28;20232;-74
2021/01/05 08:10:38;;;;;;;24.33;14.00;;;3.50;99.90;;;;;;5090333;28;20415;-74
2021/01/05 08:13:06;;;;;;;20.67;13.20;;;3.60;99.90;;;;;;5079830;28;20422;-74
2021/01/05 08:15:32;;;;;;;22.20;12.67;;;3.60;99.90;;;;;;5091416;28;20422;-74
2021/01/05 08:17:59;;;;;;;21.97;12.70;;;3.60;99.90;;;;;;5091550;28;20446;-74
2021/01/05 08:20:28;;;;;;;23.23;14.20;;;3.60;99.90;;;;;;5091604;28;20191;-74
2021/01/05 08:22:54;;;;;;;26.03;13.63;;;3.60;99.90;;;;;;5090782;28;21002;-74
2021/01/05 08:25:21;;;;;;;21.87;12.90;;;3.60;99.90;;;;;;5091344;28;20418;-74
2021/01/05 08:27:48;;;;;;;23.13;12.23;;;3.70;99.90;;;;;;5091208;28;20441;-74
2021/01/05 08:30:26;;;;;;;21.33;12.27;;;3.60;99.90;;;;;;5091480;28;21244;-74
2021/01/05 08:32:53;;;;;;;19.90;11.53;;;3.60;99.90;;;;;;5076189;28;20414;-73
2021/01/05 08:35:22;;;;;;;29.00;14.73;;;3.60;99.90;;;;;;5091323;28;20489;-73
2021/01/05 08:37:47;;;;;;;23.60;13.37;;;3.80;99.90;;;;;;5091148;28;20432;-73
2021/01/05 08:40:18;;;;;;;21.80;12.73;;;3.80;99.90;;;;;;5072835;28;20475;-74
2021/01/05 08:42:43;;;;;;;21.27;12.60;;;3.60;99.90;;;;;;5091168;28;20215;-73
2021/01/05 08:45:10;;;;;;;24.40;13.87;;;3.60;99.90;;;;;;5089264;28;20430;-74
2021/01/05 08:47:36;;;;;;;27.80;13.83;;;3.70;99.90;;;;;;5091286;28;20594;-74
2021/01/05 08:50:05;;;;;;;23.13;14.23;;;3.50;99.90;;;;;;5090958;28;20453;-74
2021/01/05 08:52:30;;;;;;;23.37;14.33;;;3.70;99.90;;;;;;5077489;28;20430;-73
2021/01/05 08:54:56;;;;;;;24.63;14.27;;;3.60;99.90;;;;;;5090024;28;20467;-73
2021/01/05 08:57:22;;;;;;;20.13;12.57;;;3.70;99.90;;;;;;5072659;28;20647;-73
2021/01/05 08:59:48;;;;;;;22.73;14.17;;;3.90;99.90;;;;;;5089695;28;20176;-73
2021/01/05 09:02:14;;;;;;;25.80;14.87;;;3.60;99.90;;;;;;5083492;28;20272;-73
2021/01/05 09:04:40;;;;;;;23.93;13.10;;;3.60;99.90;;;;;;5088685;28;20518;-73
2021/01/05 09:07:07;;;;;;;23.37;13.93;;;3.80;99.90;;;;;;5082257;28;20423;-73
2021/01/05 09:09:33;;;;;;;21.70;14.00;;;3.60;99.90;;;;;;5052490;28;20411;-73
2021/01/05 09:11:59;;;;;;;27.63;13.87;;;3.90;99.90;;;;;;5072588;28;20521;-74
2021/01/05 09:14:26;;;;;;;24.90;15.90;;;4.10;99.90;;;;;;5089954;28;20831;-73
2021/01/05 09:16:59;;;;;;;21.90;15.20;;;4.10;99.90;;;;;;5078583;28;20538;-73
2021/01/05 09:19:26;;;;;;;24.07;15.50;;;4.10;99.90;;;;;;5085120;28;20423;-74
2021/01/05 09:21:52;;;;;;;28.53;16.30;;;3.90;99.90;;;;;;5088996;28;20750;-73
2021/01/05 09:24:18;;;;;;;23.60;15.80;;;3.70;99.90;;;;;;5089062;28;20526;-73
2021/01/05 09:26:44;;;;;;;29.87;15.50;;;4.00;99.90;;;;;;5089366;28;20207;-74
2021/01/05 09:29:11;;;;;;;25.37;14.87;;;3.70;99.90;;;;;;5090339;28;20400;-74
2021/01/05 09:31:45;;;;;;;22.37;14.57;;;4.10;99.90;;;;;;5070559;28;20921;-74
2021/01/05 09:34:13;;;;;;;26.43;14.57;;;3.70;99.90;;;;;;5089349;28;20521;-74
2021/01/05 09:36:39;;;;;;;24.33;15.27;;;3.60;99.90;;;;;;5089790;28;20907;-73
2021/01/05 09:39:09;;;;;;;27.73;15.77;;;3.70;99.90;;;;;;5089887;28;20461;-73
2021/01/05 09:41:40;;;;;;;23.77;14.93;;;3.60;99.90;;;;;;5090100;28;20421;-74
2021/01/05 09:44:06;;;;;;;24.57;16.50;;;3.50;99.90;;;;;;5089198;28;20461;-73
2021/01/05 09:46:32;;;;;;;28.17;16.13;;;3.80;99.90;;;;;;5088787;28;20454;-73
2021/01/05 09:48:58;;;;;;;26.23;15.50;;;3.90;99.90;;;;;;5088414;28;20426;-73
2021/01/05 09:51:27;;;;;;;26.90;16.20;;;3.60;99.90;;;;;;5089926;28;20419;-73
2021/01/05 09:53:53;;;;;;;26.57;15.67;;;3.60;99.90;;;;;;5075703;28;20176;-74
2021/01/05 09:56:19;;;;;;;23.53;13.93;;;3.70;99.90;;;;;;5071807;28;20427;-73
2021/01/05 09:58:45;;;;;;;27.00;14.77;;;3.70;99.90;;;;;;5089506;28;20506;-73
2021/01/05 10:01:12;;;;;;;27.07;15.63;;;3.90;99.90;;;;;;5088478;28;20237;-73
2021/01/05 10:03:37;;;;;;;33.17;16.40;;;3.80;99.90;;;;;;5075214;28;20856;-73
2021/01/05 10:06:03;;;;;;;29.37;16.47;;;4.00;99.90;;;;;;5088664;28;20437;-73
2021/01/05 10:08:29;;;;;;;27.27;17.37;;;3.80;99.90;;;;;;5087135;28;20239;-73
2021/01/05 10:10:55;;;;;;;25.30;16.27;;;3.80;99.90;;;;;;5086798;28;20465;-73
2021/01/05 10:13:21;;;;;;;31.70;17.40;;;3.60;99.90;;;;;;5086086;28;20542;-73
2021/01/05 10:15:46;;;;;;;26.90;16.50;;;3.90;99.90;;;;;;5089393;28;20260;-73
2021/01/05 10:18:12;;;;;;;26.67;15.03;;;3.70;99.90;;;;;;5089101;28;20188;-73
2021/01/05 10:20:38;;;;;;;29.33;16.93;;;3.90;99.90;;;;;;5089169;28;20220;-73
2021/01/05 10:23:04;;;;;;;25.00;15.50;;;3.70;99.90;;;;;;5088756;28;20243;-73
2021/01/05 10:25:30;;;;;;;27.27;15.63;;;3.50;99.90;;;;;;5087664;28;20461;-73
2021/01/05 10:27:56;;;;;;;32.00;17.40;;;3.70;99.90;;;;;;5089279;28;20212;-74
2021/01/05 10:30:22;;;;;;;27.73;16.03;;;3.60;99.90;;;;;;5088878;28;20471;-73
2021/01/05 10:32:48;;;;;;;31.00;17.70;;;3.70;99.90;;;;;;5072887;28;20499;-73
2021/01/05 10:35:16;;;;;;;29.20;17.63;;;3.70;99.90;;;;;;5088353;28;20509;-73
2021/01/05 10:37:45;;;;;;;25.77;15.70;;;3.60;99.90;;;;;;5074436;28;20224;-73
2021/01/05 10:40:11;;;;;;;27.20;16.37;;;3.90;99.90;;;;;;5070879;28;20509;-73
2021/01/05 10:42:41;;;;;;;27.47;15.80;;;3.70;99.90;;;;;;5088716;28;20461;-73
2021/01/05 10:45:08;;;;;;;28.17;16.03;;;3.80;99.90;;;;;;5088023;28;20422;-73
2021/01/05 10:47:34;;;;;;;34.10;16.63;;;4.00;99.90;;;;;;5088592;28;20812;-73
2021/01/05 10:50:00;;;;;;;26.20;15.10;;;4.00;99.90;;;;;;5088391;28;20422;-73
2021/01/05 10:52:25;;;;;;;24.30;15.37;;;3.70;99.90;;;;;;5053967;28;20555;-73
2021/01/05 10:54:51;;;;;;;24.80;15.73;;;3.70;99.90;;;;;;5088112;28;20422;-73
2021/01/05 10:57:17;;;;;;;27.47;15.47;;;3.50;99.90;;;;;;5088425;28;20192;-73
2021/01/05 10:59:43;;;;;;;26.63;15.50;;;3.50;99.90;;;;;;5087427;28;20196;-73
2021/01/05 11:02:09;;;;;;;30.93;16.67;;;3.40;99.90;;;;;;5088204;28;20401;-73
2021/01/05 11:04:36;;;;;;;25.27;16.10;;;3.70;99.90;;;;;;5086711;28;20389;-73
2021/01/05 11:07:06;;;;;;;28.63;15.43;;;3.50;99.90;;;;;;5088208;28;20950;-73
2021/01/05 11:09:32;;;;;;;24.97;15.00;;;3.90;99.90;;;;;;5087352;28;20445;-73
2021/01/05 11:12:03;;;;;;;24.40;14.50;;;3.50;99.90;;;;;;5088090;28;20422;-73
2021/01/05 11:14:29;;;;;;;24.20;14.07;;;3.70;99.90;;;;;;5086378;28;20446;-73
2021/01/05 11:16:55;;;;;;;25.50;15.17;;;3.60;99.90;;;;;;5088153;28;20425;-73
2021/01/05 11:19:21;;;;;;;25.37;15.97;;;3.80;99.90;;;;;;5087233;28;20534;-73
2021/01/05 11:22:02;;;;;;;24.93;15.30;;;3.70;99.90;;;;;;5086797;28;20484;-73
2021/01/05 11:24:29;;;;;;;23.93;15.10;;;3.90;99.90;;;;;;5080319;28;20457;-73
2021/01/05 11:26:55;;;;;;;26.07;16.00;;;3.80;99.90;;;;;;5083563;28;20442;-73
2021/01/05 11:29:22;;;;;;;25.13;15.50;;;4.10;99.90;;;;;;5086972;28;20817;-73
2021/01/05 11:31:58;;;;;;;26.97;15.30;;;3.80;99.90;;;;;;5086213;28;20945;-73
2021/01/05 11:34:24;;;;;;;26.40;15.17;;;3.90;99.90;;;;;;5087331;28;20528;-73
2021/01/05 11:36:50;;;;;;;24.93;14.43;;;3.70;99.90;;;;;;5087314;28;20468;-73
2021/01/05 11:39:17;;;;;;;27.67;15.70;;;4.00;99.90;;;;;;5086762;28;20425;-73
2021/01/05 11:41:45;;;;;;;28.10;15.43;;;3.90;99.90;;;;;;5086434;28;20418;-73
2021/01/05 11:44:12;;;;;;;26.97;17.10;;;3.90;99.90;;;;;;5086233;28;20557;-73
2021/01/05 11:46:38;;;;;;;26.80;16.30;;;3.90;99.90;;;;;;5082981;28;20471;-73
2021/01/05 11:49:04;;;;;;;29.50;17.20;;;4.00;99.90;;;;;;5079673;28;20422;-73
2021/01/05 11:51:32;;;;;;;27.10;16.27;;;4.10;99.90;;;;;;5069295;28;20191;-73
2021/01/05 11:53:59;;;;;;;27.10;16.17;;;3.70;99.90;;;;;;5087462;28;20191;-73
2021/01/05 11:56:27;;;;;;;22.13;13.10;;;4.00;99.90;;;;;;5087592;28;20505;-73
2021/01/05 11:58:53;;;;;;;25.27;15.27;;;4.00;99.90;;;;;;5080307;28;20863;-73
2021/01/05 12:01:20;;;;;;;24.90;16.77;;;3.80;99.90;;;;;;5086096;28;20680;-73
2021/01/05 12:03:45;;;;;;;25.50;16.30;;;4.00;99.90;;;;;;5085353;28;20557;-73
2021/01/05 12:06:17;;;;;;;29.60;16.20;;;3.80;99.90;;;;;;5087113;28;21093;-73
2021/01/05 12:08:43;;;;;;;29.07;16.97;;;3.90;99.90;;;;;;5076539;28;20510;-73
2021/01/05 12:11:23;;;;;;;34.10;18.40;;;4.00;99.90;;;;;;5077264;28;20423;-73
2021/01/05 12:13:48;;;;;;;28.17;17.40;;;3.70;99.90;;;;;;5086679;28;20520;-73
2021/01/05 12:16:29;;;;;;;33.00;17.80;;;3.70;99.90;;;;;;5085254;28;20537;-73
2021/01/05 12:18:57;;;;;;;34.70;18.43;;;3.80;99.90;;;;;;5086196;28;20192;-74
2021/01/05 12:21:34;;;;;;;34.37;17.57;;;3.70;99.90;;;;;;5087243;28;20422;-73
2021/01/05 12:24:00;;;;;;;30.10;16.70;;;3.90;99.90;;;;;;5085986;28;20982;-73
2021/01/05 12:26:29;;;;;;;29.40;18.10;;;3.80;99.90;;;;;;5086873;28;20415;-73
2021/01/05 12:28:55;;;;;;;30.70;17.27;;;4.00;99.90;;;;;;5085235;28;20426;-73
2021/01/05 12:31:22;;;;;;;29.50;19.37;;;3.90;99.90;;;;;;5085833;28;20456;-73
2021/01/05 12:33:47;;;;;;;38.47;19.03;;;4.10;99.90;;;;;;5086303;28;20433;-73
2021/01/05 12:36:22;;;;;;;30.80;18.23;;;4.20;99.90;;;;;;5087363;28;20422;-73
2021/01/05 12:38:48;;;;;;;31.63;18.73;;;3.90;99.90;;;;;;5086350;28;20199;-73
2021/01/05 12:41:14;;;;;;;29.57;16.60;;;3.90;99.90;;;;;;5085568;28;20434;-73
2021/01/05 12:43:39;;;;;;;30.40;17.63;;;4.10;99.90;;;;;;5070359;28;20220;-74
2021/01/05 12:46:10;;;;;;;31.73;17.63;;;3.80;99.90;;;;;;5089489;28;20207;-73
2021/01/05 12:48:36;;;;;;;29.07;16.80;;;3.90;99.90;;;;;;5089452;28;20195;-73
2021/01/05 12:51:02;;;;;;;29.43;16.40;;;4.10;99.90;;;;;;5089489;28;20422;-73
2021/01/05 12:53:27;;;;;;;28.77;15.77;;;4.10;99.90;;;;;;5089988;28;20944;-73